createdAt,value
2023-03-10T00:03:28.781Z,0.67
2023-03-10T00:08:36.169Z,0.70
2023-03-10T00:13:43.613Z,0.90
2023-03-10T00:18:50.876Z,0.80
2023-03-10T00:23:59.280Z,0.70
2023-03-10T00:29:06.893Z,0.77
2023-03-10T00:34:14.749Z,1.00
2023-03-10T00:39:21.591Z,1.37
2023-03-10T00:44:28.842Z,1.40
2023-03-10T00:49:35.620Z,0.90
2023-03-10T00:54:43.171Z,0.60
2023-03-10T00:59:54.162Z,0.70
2023-03-10T01:05:01.125Z,0.70
2023-03-10T01:10:10.028Z,0.63
2023-03-10T01:15:17.032Z,0.60
2023-03-10T01:20:24.034Z,0.60
2023-03-10T01:25:31.502Z,0.73
2023-03-10T01:30:39.725Z,0.50
2023-03-10T01:35:47.503Z,0.60
2023-03-10T01:40:54.566Z,0.70
2023-03-10T01:46:31.349Z,0.80
2023-03-10T01:51:41.476Z,0.70
2023-03-10T01:56:49.926Z,0.83
2023-03-10T02:01:58.746Z,0.73
2023-03-10T02:07:08.289Z,0.80
2023-03-10T02:12:17.217Z,0.90
2023-03-10T02:17:26.776Z,0.67
2023-03-10T02:22:34.918Z,1.03
2023-03-10T02:27:43.400Z,1.10
2023-03-10T02:32:54.828Z,1.30
2023-03-10T02:38:01.657Z,1.00
2023-03-10T02:43:29.584Z,0.90
2023-03-10T02:48:39.977Z,1.20
2023-03-10T02:53:46.919Z,0.90
2023-03-10T02:58:53.828Z,1.30
2023-03-10T03:04:01.456Z,1.70
2023-03-10T03:09:08.402Z,1.37
2023-03-10T03:14:16.178Z,1.90
2023-03-10T03:19:24.152Z,1.83
2023-03-10T03:24:32.319Z,2.13
2023-03-10T03:29:39.154Z,2.30
2023-03-10T03:34:45.855Z,2.33
2023-03-10T03:39:52.584Z,2.67
2023-03-10T03:44:59.274Z,2.73
2023-03-10T03:50:09.211Z,2.90
2023-03-10T03:55:18.854Z,1.97
2023-03-10T04:00:46.507Z,1.90
2023-03-10T04:05:53.374Z,2.70
2023-03-10T04:10:59.999Z,2.60
2023-03-10T04:16:07.269Z,2.87
2023-03-10T04:21:14.131Z,3.63
2023-03-10T04:26:21.037Z,3.90
2023-03-10T04:31:27.953Z,4.80
2023-03-10T04:36:34.788Z,15.93
2023-03-10T04:41:41.471Z,2.97
2023-03-10T04:46:48.191Z,1.93
2023-03-10T04:51:54.835Z,2.00
2023-03-10T04:57:01.533Z,2.30
2023-03-10T05:02:08.240Z,1.97
2023-03-10T05:07:14.874Z,2.77
2023-03-10T05:12:21.626Z,2.70
2023-03-10T05:17:29.808Z,2.90
2023-03-10T05:22:36.954Z,3.30
2023-03-10T05:27:44.593Z,3.97
2023-03-10T05:32:51.279Z,3.83
2023-03-10T05:37:57.940Z,3.80
2023-03-10T05:43:04.653Z,3.50
2023-03-10T05:48:11.318Z,3.60
2023-03-10T05:53:18.430Z,3.20
2023-03-10T05:58:26.665Z,3.80
2023-03-10T06:03:33.540Z,4.70
2023-03-10T06:08:40.272Z,4.07
2023-03-10T06:13:46.922Z,3.53
2023-03-10T06:18:58.160Z,3.80
2023-03-10T06:24:06.050Z,3.93
2023-03-10T06:29:12.786Z,3.60
2023-03-10T06:34:19.643Z,3.27
2023-03-10T06:39:27.957Z,3.93
2023-03-10T06:44:35.119Z,4.10
2023-03-10T06:49:42.029Z,4.93
2023-03-10T06:54:48.728Z,4.23
2023-03-10T06:59:55.532Z,4.10
2023-03-10T07:05:02.339Z,3.17
2023-03-10T07:10:10.410Z,3.70
2023-03-10T07:15:17.322Z,3.77
2023-03-10T07:20:24.706Z,4.77
2023-03-10T07:25:31.801Z,4.43
2023-03-10T07:30:39.190Z,4.73
2023-03-10T07:35:46.256Z,4.80
2023-03-10T07:40:52.906Z,4.67
2023-03-10T07:45:59.640Z,4.20
2023-03-10T07:51:06.870Z,4.47
2023-03-10T07:56:15.640Z,4.97
2023-03-10T08:01:23.678Z,5.03
2023-03-10T08:06:33.034Z,4.60
2023-03-10T08:11:39.662Z,4.80
2023-03-10T08:16:46.997Z,4.33
2023-03-10T08:21:56.059Z,4.40
2023-03-10T08:27:02.709Z,4.40
2023-03-10T08:32:09.766Z,4.07
2023-03-10T08:37:16.514Z,3.97
2023-03-10T08:42:23.667Z,3.47
2023-03-10T08:47:32.307Z,4.27
2023-03-10T08:52:38.782Z,3.80
2023-03-10T08:57:45.691Z,3.60
2023-03-10T09:02:52.459Z,3.10
2023-03-10T09:07:59.140Z,2.87
2023-03-10T09:13:13.684Z,3.50
2023-03-10T09:18:16.225Z,3.40
2023-03-10T09:23:22.901Z,3.60
2023-03-10T09:28:29.603Z,3.83
2023-03-10T09:33:36.982Z,3.37
2023-03-10T09:38:43.725Z,3.03
2023-03-10T09:44:30.246Z,3.40
2023-03-10T09:50:16.151Z,3.20
2023-03-10T09:55:26.854Z,3.10
2023-03-10T10:00:40.354Z,2.87
2023-03-10T10:05:49.447Z,2.80
2023-03-10T10:11:02.289Z,3.03
2023-03-10T10:16:34.548Z,2.60
2023-03-10T10:22:06.390Z,2.37
2023-03-10T10:27:14.670Z,2.87
2023-03-10T10:32:21.327Z,2.30
2023-03-10T10:37:41.373Z,2.30
2023-03-10T10:42:51.270Z,2.97
2023-03-10T10:47:58.408Z,2.50
2023-03-10T10:53:27.029Z,2.73
2023-03-10T10:58:41.940Z,3.40
2023-03-10T11:03:50.121Z,2.70
2023-03-10T11:09:10.936Z,2.63
2023-03-10T11:14:31.416Z,2.47
2023-03-10T11:20:26.189Z,2.40
2023-03-10T11:25:54.474Z,2.77
2023-03-10T11:31:29.426Z,2.60
2023-03-10T11:36:57.116Z,2.57
2023-03-10T11:42:09.505Z,2.60
2023-03-10T11:47:49.008Z,1.97
2023-03-10T11:53:01.291Z,2.60
2023-03-10T11:58:10.955Z,2.10
2023-03-10T12:03:24.929Z,2.60
2023-03-10T12:08:37.030Z,2.87
2023-03-10T12:13:48.420Z,2.50
2023-03-10T12:18:55.298Z,2.17
2023-03-10T12:24:05.345Z,2.43
2023-03-10T12:29:28.862Z,2.50
2023-03-10T12:34:35.636Z,2.60
2023-03-10T12:39:46.619Z,2.70
2023-03-10T12:45:30.128Z,2.80
2023-03-10T12:51:01.914Z,2.63
2023-03-10T12:56:19.177Z,2.70
2023-03-10T13:01:29.515Z,2.90
2023-03-10T13:06:40.357Z,2.90
2023-03-10T13:12:00.912Z,2.73
2023-03-10T13:17:09.865Z,2.80
2023-03-10T13:22:18.752Z,2.80
2023-03-10T13:27:29.053Z,2.77
2023-03-10T13:32:36.095Z,2.37
2023-03-10T13:37:42.801Z,2.47
2023-03-10T13:42:50.545Z,2.50
2023-03-10T13:47:57.386Z,2.60
2023-03-10T13:53:04.904Z,2.50
2023-03-10T13:58:14.702Z,2.80
2023-03-10T14:03:22.667Z,2.63
2023-03-10T14:08:34.021Z,2.60
2023-03-10T14:13:46.125Z,2.60
2023-03-10T14:18:52.745Z,2.23
2023-03-10T14:24:06.097Z,2.20
2023-03-10T14:29:17.576Z,2.00
2023-03-10T14:34:24.280Z,2.30
2023-03-10T14:39:30.978Z,2.47
2023-03-10T14:44:37.723Z,3.23
2023-03-10T14:49:46.315Z,3.43
2023-03-10T14:54:52.996Z,3.23
2023-03-10T14:59:59.737Z,3.60
2023-03-10T15:05:07.347Z,3.73
2023-03-10T15:10:15.653Z,3.33
2023-03-10T15:15:25.977Z,3.27
2023-03-10T15:20:32.641Z,2.80
2023-03-10T15:25:39.780Z,2.90
2023-03-10T15:30:47.321Z,2.70
2023-03-10T15:35:55.278Z,3.10
2023-03-10T15:41:04.118Z,4.57
2023-03-10T15:46:11.064Z,3.20
2023-03-10T15:51:18.294Z,3.30
2023-03-10T15:56:25.349Z,2.80
2023-03-10T16:01:32.119Z,2.53
2023-03-10T16:06:38.855Z,2.40
2023-03-10T16:11:45.559Z,2.37
2023-03-10T16:16:52.238Z,2.40
2023-03-10T16:21:59.022Z,2.33
2023-03-10T16:27:05.720Z,3.93
2023-03-10T16:32:12.647Z,4.17
2023-03-10T16:37:19.307Z,3.70
2023-03-10T16:42:31.152Z,2.90
2023-03-10T16:47:37.856Z,3.20
2023-03-10T16:52:44.856Z,2.40
2023-03-10T16:57:51.588Z,2.70
2023-03-10T17:02:58.170Z,3.10
2023-03-10T17:08:06.212Z,4.90
2023-03-10T17:13:12.887Z,4.00
2023-03-10T17:18:20.025Z,4.03
2023-03-10T17:23:26.698Z,3.03
2023-03-10T17:28:34.517Z,3.30
2023-03-10T17:33:42.548Z,2.87
2023-03-10T17:38:50.119Z,2.70
2023-03-10T17:43:57.641Z,2.87
2023-03-10T17:49:04.334Z,2.90
2023-03-10T17:54:16.384Z,2.60
2023-03-10T17:59:23.283Z,2.60
2023-03-10T18:04:30.821Z,2.30
2023-03-10T18:09:37.649Z,2.10
2023-03-10T18:14:45.058Z,2.20
2023-03-10T18:19:53.691Z,2.00
2023-03-10T18:25:04.008Z,2.10
2023-03-10T18:30:13.620Z,2.20
2023-03-10T18:35:20.815Z,2.40
2023-03-10T18:40:28.200Z,8.03
2023-03-10T18:45:35.352Z,2.47
2023-03-10T18:50:42.100Z,16.00
2023-03-10T18:55:49.206Z,36.10
2023-03-10T19:00:56.940Z,97.13
2023-03-10T19:06:03.775Z,58.30
2023-03-10T19:11:11.000Z,16.40
2023-03-10T19:16:17.901Z,8.90
2023-03-10T19:21:24.843Z,14.70
2023-03-10T19:26:33.333Z,10.47
2023-03-10T19:31:40.821Z,5.90
2023-03-10T19:36:47.762Z,1.90
2023-03-10T19:41:55.169Z,2.43
2023-03-10T19:47:02.418Z,1.67
2023-03-10T19:52:09.895Z,2.37
2023-03-10T19:57:16.616Z,1.33
2023-03-10T20:02:24.934Z,1.20
2023-03-10T20:07:31.944Z,1.30
2023-03-10T20:12:38.743Z,8.97
2023-03-10T20:17:45.591Z,2.07
2023-03-10T20:22:53.124Z,1.57
2023-03-10T20:27:59.975Z,1.87
2023-03-10T20:33:06.937Z,1.60
2023-03-10T20:38:13.916Z,1.30
2023-03-10T20:43:21.323Z,1.33
2023-03-10T20:48:28.241Z,1.20
2023-03-10T20:53:37.582Z,1.00
2023-03-10T20:58:44.800Z,1.10
2023-03-10T21:03:53.629Z,1.00
2023-03-10T21:09:02.054Z,1.20
2023-03-10T21:14:09.409Z,1.03
2023-03-10T21:19:16.693Z,0.70
2023-03-10T21:24:24.176Z,0.80
2023-03-10T21:29:31.052Z,0.57
2023-03-10T21:34:38.126Z,0.50
2023-03-10T21:39:48.339Z,0.80
2023-03-10T21:44:56.304Z,1.00
2023-03-10T21:50:03.720Z,1.00
2023-03-10T21:55:18.002Z,1.10
2023-03-10T22:05:31.666Z,1.00
2023-03-10T22:10:38.495Z,0.80
2023-03-10T22:15:45.698Z,0.77
2023-03-10T22:20:53.152Z,0.73
2023-03-10T22:26:00.016Z,0.40
2023-03-10T22:31:12.196Z,0.47
2023-03-10T22:36:19.242Z,0.50
2023-03-10T22:41:27.778Z,0.40
2023-03-10T22:46:34.896Z,3.27
2023-03-10T22:51:42.562Z,0.77
2023-03-10T22:56:49.823Z,6.07
2023-03-10T23:01:56.736Z,4.50
2023-03-10T23:07:03.835Z,8.23
2023-03-10T23:12:11.704Z,1.00
2023-03-10T23:17:18.405Z,1.23
2023-03-10T23:22:26.904Z,47.30
2023-03-10T23:27:33.578Z,1.67
2023-03-10T23:32:41.154Z,8.40
2023-03-10T23:37:48.789Z,2.67
2023-03-10T23:42:58.158Z,0.70
2023-03-10T23:48:06.773Z,0.60
2023-03-10T23:53:17.770Z,0.63
2023-03-10T23:58:25.081Z,0.60
